sensor_id;sensor_type;location;lat;lon;timestamp;P1;P2;P0
30713;PMS7003;17465;47.934;33.430;2023-10-08T00:01:47;15.40;14.00;8.00
30713;PMS7003;17465;47.934;33.430;2023-10-08T00:04:17;10.60;10.60;6.80
30713;PMS7003;17465;47.934;33.430;2023-10-08T00:06:47;12.80;10.00;6.60
30713;PMS7003;17465;47.934;33.430;2023-10-08T00:09:18;10.80;9.60;5.40
30713;PMS7003;17465;47.934;33.430;2023-10-08T00:11:48;13.20;13.20;8.00
30713;PMS7003;17465;47.934;33.430;2023-10-08T00:14:18;12.20;12.00;8.40
30713;PMS7003;17465;47.934;33.430;2023-10-08T00:16:48;10.40;8.40;5.80
30713;PMS7003;17465;47.934;33.430;2023-10-08T00:19:19;13.40;10.40;6.20
30713;PMS7003;17465;47.934;33.430;2023-10-08T00:21:49;9.60;9.60;3.80
30713;PMS7003;17465;47.934;33.430;2023-10-08T00:24:19;9.20;8.20;6.20
30713;PMS7003;17465;47.934;33.430;2023-10-08T00:26:49;11.20;10.00;6.80
30713;PMS7003;17465;47.934;33.430;2023-10-08T00:29:21;8.80;8.80;4.40
30713;PMS7003;17465;47.934;33.430;2023-10-08T00:31:52;11.50;9.50;4.50
30713;PMS7003;17465;47.934;33.430;2023-10-08T00:34:22;8.00;8.00;4.40
30713;PMS7003;17465;47.934;33.430;2023-10-08T00:36:54;12.00;12.00;7.80
30713;PMS7003;17465;47.934;33.430;2023-10-08T00:39:24;12.00;9.40;5.20
30713;PMS7003;17465;47.934;33.430;2023-10-08T00:41:54;8.00;8.00;4.20
30713;PMS7003;17465;47.934;33.430;2023-10-08T00:44:24;8.80;8.40;5.40
30713;PMS7003;17465;47.934;33.430;2023-10-08T00:47:01;8.40;8.40;4.80
30713;PMS7003;17465;47.934;33.430;2023-10-08T00:49:28;12.60;10.40;6.20
30713;PMS7003;17465;47.934;33.430;2023-10-08T00:51:59;11.40;10.40;6.20
30713;PMS7003;17465;47.934;33.430;2023-10-08T00:54:31;8.80;8.80;4.00
30713;PMS7003;17465;47.934;33.430;2023-10-08T00:57:01;6.60;6.40;4.20
30713;PMS7003;17465;47.934;33.430;2023-10-08T00:59:33;11.20;10.00;4.60
30713;PMS7003;17465;47.934;33.430;2023-10-08T01:02:03;10.80;10.60;7.40
30713;PMS7003;17465;47.934;33.430;2023-10-08T01:04:37;14.20;12.00;7.00
30713;PMS7003;17465;47.934;33.430;2023-10-08T01:07:09;9.75;8.50;5.00
30713;PMS7003;17465;47.934;33.430;2023-10-08T01:09:42;11.80;11.80;7.00
30713;PMS7003;17465;47.934;33.430;2023-10-08T01:12:14;15.00;13.40;8.60
30713;PMS7003;17465;47.934;33.430;2023-10-08T01:14:46;15.20;15.20;10.00
30713;PMS7003;17465;47.934;33.430;2023-10-08T01:17:16;14.40;14.40;9.00
30713;PMS7003;17465;47.934;33.430;2023-10-08T01:19:47;11.60;11.00;7.00
30713;PMS7003;17465;47.934;33.430;2023-10-08T01:22:17;14.40;14.40;10.00
30713;PMS7003;17465;47.934;33.430;2023-10-08T01:24:48;14.60;14.40;8.40
30713;PMS7003;17465;47.934;33.430;2023-10-08T01:27:19;14.75;13.75;9.25
30713;PMS7003;17465;47.934;33.430;2023-10-08T01:29:50;13.60;10.40;6.20
30713;PMS7003;17465;47.934;33.430;2023-10-08T01:32:21;14.00;12.60;8.00
30713;PMS7003;17465;47.934;33.430;2023-10-08T01:34:51;14.60;14.60;9.20
30713;PMS7003;17465;47.934;33.430;2023-10-08T01:37:22;16.75;15.50;9.75
30713;PMS7003;17465;47.934;33.430;2023-10-08T01:39:52;16.25;15.25;8.75
30713;PMS7003;17465;47.934;33.430;2023-10-08T01:42:22;12.75;12.00;9.25
30713;PMS7003;17465;47.934;33.430;2023-10-08T01:44:52;15.25;12.00;9.75
30713;PMS7003;17465;47.934;33.430;2023-10-08T01:47:22;14.00;12.50;9.25
30713;PMS7003;17465;47.934;33.430;2023-10-08T01:49:52;12.25;10.50;7.00
30713;PMS7003;17465;47.934;33.430;2023-10-08T01:52:22;15.25;14.25;9.25
30713;PMS7003;17465;47.934;33.430;2023-10-08T01:54:53;12.75;12.75;9.25
30713;PMS7003;17465;47.934;33.430;2023-10-08T01:57:23;10.00;10.00;7.25
30713;PMS7003;17465;47.934;33.430;2023-10-08T01:59:53;14.00;14.00;9.75
30713;PMS7003;17465;47.934;33.430;2023-10-08T02:02:23;14.75;14.25;9.75
30713;PMS7003;17465;47.934;33.430;2023-10-08T02:04:54;12.00;11.00;7.25
30713;PMS7003;17465;47.934;33.430;2023-10-08T02:07:26;5.00;3.00;0.00
30713;PMS7003;17465;47.934;33.430;2023-10-08T02:10:00;12.50;12.50;8.00
30713;PMS7003;17465;47.934;33.430;2023-10-08T02:12:30;11.00;11.00;7.25
30713;PMS7003;17465;47.934;33.430;2023-10-08T02:15:01;14.25;13.00;7.75
30713;PMS7003;17465;47.934;33.430;2023-10-08T02:17:32;9.00;9.00;4.50
30713;PMS7003;17465;47.934;33.430;2023-10-08T02:20:03;11.50;11.50;6.50
30713;PMS7003;17465;47.934;33.430;2023-10-08T02:22:34;10.50;10.50;6.00
30713;PMS7003;17465;47.934;33.430;2023-10-08T02:25:04;8.25;7.00;5.50
30713;PMS7003;17465;47.934;33.430;2023-10-08T02:27:35;11.25;9.50;6.00
30713;PMS7003;17465;47.934;33.430;2023-10-08T02:30:07;9.00;8.75;6.00
30713;PMS7003;17465;47.934;33.430;2023-10-08T02:32:56;8.50;7.75;5.50
30713;PMS7003;17465;47.934;33.430;2023-10-08T02:35:26;10.75;8.75;6.00
30713;PMS7003;17465;47.934;33.430;2023-10-08T02:37:57;13.00;11.00;5.50
30713;PMS7003;17465;47.934;33.430;2023-10-08T02:40:28;13.50;12.75;8.50
30713;PMS7003;17465;47.934;33.430;2023-10-08T02:42:58;8.25;8.25;5.50
30713;PMS7003;17465;47.934;33.430;2023-10-08T02:45:29;11.00;10.00;6.75
30713;PMS7003;17465;47.934;33.430;2023-10-08T02:47:59;9.25;9.25;5.00
30713;PMS7003;17465;47.934;33.430;2023-10-08T02:50:32;10.50;10.25;5.00
30713;PMS7003;17465;47.934;33.430;2023-10-08T02:53:01;11.00;10.75;5.50
30713;PMS7003;17465;47.934;33.430;2023-10-08T02:55:32;13.25;12.00;8.00
30713;PMS7003;17465;47.934;33.430;2023-10-08T02:58:02;10.75;9.75;6.00
30713;PMS7003;17465;47.934;33.430;2023-10-08T03:00:32;12.00;10.25;5.25
30713;PMS7003;17465;47.934;33.430;2023-10-08T03:03:02;10.50;9.00;6.50
30713;PMS7003;17465;47.934;33.430;2023-10-08T03:05:33;10.00;10.00;5.00
30713;PMS7003;17465;47.934;33.430;2023-10-08T03:08:03;8.75;6.50;5.25
30713;PMS7003;17465;47.934;33.430;2023-10-08T03:10:34;11.75;11.75;7.75
30713;PMS7003;17465;47.934;33.430;2023-10-08T03:13:04;10.50;10.50;6.75
30713;PMS7003;17465;47.934;33.430;2023-10-08T03:15:34;14.25;13.25;8.25
30713;PMS7003;17465;47.934;33.430;2023-10-08T03:18:10;15.00;14.25;9.75
30713;PMS7003;17465;47.934;33.430;2023-10-08T03:20:37;12.00;11.25;7.00
30713;PMS7003;17465;47.934;33.430;2023-10-08T03:23:08;11.50;11.25;9.00
30713;PMS7003;17465;47.934;33.430;2023-10-08T03:25:39;14.00;13.00;7.50
30713;PMS7003;17465;47.934;33.430;2023-10-08T03:28:11;10.25;10.25;7.00
30713;PMS7003;17465;47.934;33.430;2023-10-08T03:30:41;13.75;12.50;9.00
30713;PMS7003;17465;47.934;33.430;2023-10-08T03:33:12;11.75;9.25;5.75
30713;PMS7003;17465;47.934;33.430;2023-10-08T03:35:42;12.50;11.50;7.00
30713;PMS7003;17465;47.934;33.430;2023-10-08T03:38:12;10.50;10.50;6.25
30713;PMS7003;17465;47.934;33.430;2023-10-08T03:40:42;13.25;10.50;6.75
30713;PMS7003;17465;47.934;33.430;2023-10-08T03:43:14;14.75;12.50;6.75
30713;PMS7003;17465;47.934;33.430;2023-10-08T03:45:44;10.50;10.50;6.75
30713;PMS7003;17465;47.934;33.430;2023-10-08T03:48:14;11.25;11.00;6.75
30713;PMS7003;17465;47.934;33.430;2023-10-08T03:50:45;10.50;10.50;6.25
30713;PMS7003;17465;47.934;33.430;2023-10-08T03:53:15;11.75;11.00;7.50
30713;PMS7003;17465;47.934;33.430;2023-10-08T03:55:45;13.25;13.00;8.00
30713;PMS7003;17465;47.934;33.430;2023-10-08T03:58:15;12.75;12.75;8.00
30713;PMS7003;17465;47.934;33.430;2023-10-08T04:00:45;12.75;10.75;6.25
30713;PMS7003;17465;47.934;33.430;2023-10-08T04:03:17;12.00;10.75;6.00
30713;PMS7003;17465;47.934;33.430;2023-10-08T04:05:47;11.75;10.75;7.50
30713;PMS7003;17465;47.934;33.430;2023-10-08T04:08:20;11.50;11.50;7.00
30713;PMS7003;17465;47.934;33.430;2023-10-08T04:10:53;12.00;11.50;7.25
30713;PMS7003;17465;47.934;33.430;2023-10-08T04:13:23;10.25;10.00;6.00
30713;PMS7003;17465;47.934;33.430;2023-10-08T04:15:53;14.00;14.00;8.00
30713;PMS7003;17465;47.934;33.430;2023-10-08T04:18:24;15.50;14.25;9.50
30713;PMS7003;17465;47.934;33.430;2023-10-08T04:20:54;12.25;12.25;8.75
30713;PMS7003;17465;47.934;33.430;2023-10-08T04:23:24;14.00;12.00;6.75
30713;PMS7003;17465;47.934;33.430;2023-10-08T04:25:55;13.75;13.25;8.75
30713;PMS7003;17465;47.934;33.430;2023-10-08T04:28:25;14.75;14.75;9.75
30713;PMS7003;17465;47.934;33.430;2023-10-08T04:30:55;17.00;14.50;7.75
30713;PMS7003;17465;47.934;33.430;2023-10-08T04:33:27;16.00;13.75;9.00
30713;PMS7003;17465;47.934;33.430;2023-10-08T04:35:57;14.00;12.50;10.50
30713;PMS7003;17465;47.934;33.430;2023-10-08T04:38:27;15.25;14.25;9.25
30713;PMS7003;17465;47.934;33.430;2023-10-08T04:40:58;15.25;11.75;7.75
30713;PMS7003;17465;47.934;33.430;2023-10-08T04:43:28;8.75;8.50;5.00
30713;PMS7003;17465;47.934;33.430;2023-10-08T04:45:59;18.50;18.50;10.75
30713;PMS7003;17465;47.934;33.430;2023-10-08T04:48:37;15.25;14.25;8.00
30713;PMS7003;17465;47.934;33.430;2023-10-08T04:51:07;18.25;15.75;11.25
30713;PMS7003;17465;47.934;33.430;2023-10-08T04:53:41;18.00;18.00;11.50
30713;PMS7003;17465;47.934;33.430;2023-10-08T04:56:10;13.50;13.50;10.00
30713;PMS7003;17465;47.934;33.430;2023-10-08T04:58:41;19.00;14.25;8.00
30713;PMS7003;17465;47.934;33.430;2023-10-08T05:01:19;18.50;18.00;9.00
30713;PMS7003;17465;47.934;33.430;2023-10-08T05:03:51;13.00;13.00;8.25
30713;PMS7003;17465;47.934;33.430;2023-10-08T05:06:42;16.25;14.75;7.00
30713;PMS7003;17465;47.934;33.430;2023-10-08T05:09:13;14.25;14.25;9.00
30713;PMS7003;17465;47.934;33.430;2023-10-08T05:11:43;13.25;13.25;9.00
30713;PMS7003;17465;47.934;33.430;2023-10-08T05:14:15;8.00;8.00;3.50
30713;PMS7003;17465;47.934;33.430;2023-10-08T05:16:47;14.75;10.25;6.75
30713;PMS7003;17465;47.934;33.430;2023-10-08T05:19:17;17.75;16.50;10.75
30713;PMS7003;17465;47.934;33.430;2023-10-08T05:21:47;14.25;13.00;9.50
30713;PMS7003;17465;47.934;33.430;2023-10-08T05:24:25;9.50;8.00;6.50
30713;PMS7003;17465;47.934;33.430;2023-10-08T05:26:51;13.00;12.75;9.75
30713;PMS7003;17465;47.934;33.430;2023-10-08T05:29:22;16.75;16.25;11.25
30713;PMS7003;17465;47.934;33.430;2023-10-08T05:31:52;17.75;14.50;9.50
30713;PMS7003;17465;47.934;33.430;2023-10-08T05:34:22;14.75;14.75;10.00
30713;PMS7003;17465;47.934;33.430;2023-10-08T05:36:55;14.25;14.25;10.00
30713;PMS7003;17465;47.934;33.430;2023-10-08T05:39:25;13.00;13.00;9.25
30713;PMS7003;17465;47.934;33.430;2023-10-08T05:41:56;14.75;14.25;8.25
30713;PMS7003;17465;47.934;33.430;2023-10-08T05:44:26;15.25;15.00;10.00
30713;PMS7003;17465;47.934;33.430;2023-10-08T05:46:56;14.75;14.75;10.00
30713;PMS7003;17465;47.934;33.430;2023-10-08T05:49:26;19.25;19.25;13.25
30713;PMS7003;17465;47.934;33.430;2023-10-08T05:51:56;15.75;15.75;10.00
30713;PMS7003;17465;47.934;33.430;2023-10-08T05:54:27;14.25;13.50;8.75
30713;PMS7003;17465;47.934;33.430;2023-10-08T05:57:04;13.75;13.75;9.00
30713;PMS7003;17465;47.934;33.430;2023-10-08T05:59:54;13.50;13.50;9.00
30713;PMS7003;17465;47.934;33.430;2023-10-08T06:02:26;15.50;15.50;9.25
30713;PMS7003;17465;47.934;33.430;2023-10-08T06:04:59;16.00;15.75;10.75
30713;PMS7003;17465;47.934;33.430;2023-10-08T06:07:33;16.25;16.25;9.25
30713;PMS7003;17465;47.934;33.430;2023-10-08T06:10:06;17.75;17.75;11.00
30713;PMS7003;17465;47.934;33.430;2023-10-08T06:12:40;16.25;15.00;10.75
30713;PMS7003;17465;47.934;33.430;2023-10-08T06:15:10;15.25;15.25;10.00
30713;PMS7003;17465;47.934;33.430;2023-10-08T06:17:41;14.00;13.75;9.25
30713;PMS7003;17465;47.934;33.430;2023-10-08T06:20:11;11.00;11.00;6.25
30713;PMS7003;17465;47.934;33.430;2023-10-08T06:22:42;16.25;15.00;9.50
30713;PMS7003;17465;47.934;33.430;2023-10-08T06:25:16;14.25;11.25;6.50
30713;PMS7003;17465;47.934;33.430;2023-10-08T06:27:49;11.75;10.50;7.00
30713;PMS7003;17465;47.934;33.430;2023-10-08T06:30:20;12.25;10.75;6.75
30713;PMS7003;17465;47.934;33.430;2023-10-08T06:32:51;9.75;9.00;6.00
30713;PMS7003;17465;47.934;33.430;2023-10-08T06:35:21;8.50;8.50;4.75
30713;PMS7003;17465;47.934;33.430;2023-10-08T06:37:52;6.25;6.25;3.50
30713;PMS7003;17465;47.934;33.430;2023-10-08T06:40:28;3.75;3.75;2.25
30713;PMS7003;17465;47.934;33.430;2023-10-08T06:42:59;5.00;4.50;2.50
30713;PMS7003;17465;47.934;33.430;2023-10-08T06:45:29;6.00;5.00;3.00
30713;PMS7003;17465;47.934;33.430;2023-10-08T06:48:08;3.50;3.50;2.25
30713;PMS7003;17465;47.934;33.430;2023-10-08T06:50:39;6.00;6.00;3.75
30713;PMS7003;17465;47.934;33.430;2023-10-08T06:53:09;4.75;4.00;3.00
30713;PMS7003;17465;47.934;33.430;2023-10-08T06:55:41;4.25;4.25;2.50
30713;PMS7003;17465;47.934;33.430;2023-10-08T06:58:11;5.75;5.75;2.25
30713;PMS7003;17465;47.934;33.430;2023-10-08T07:00:41;4.75;4.75;3.00
30713;PMS7003;17465;47.934;33.430;2023-10-08T07:03:12;2.00;2.00;1.00
30713;PMS7003;17465;47.934;33.430;2023-10-08T07:05:48;6.00;5.00;3.25
30713;PMS7003;17465;47.934;33.430;2023-10-08T07:08:18;7.75;7.75;4.25
30713;PMS7003;17465;47.934;33.430;2023-10-08T07:10:51;4.75;4.75;2.25
30713;PMS7003;17465;47.934;33.430;2023-10-08T07:13:22;6.00;5.25;3.25
30713;PMS7003;17465;47.934;33.430;2023-10-08T07:16:15;5.00;5.00;3.75
30713;PMS7003;17465;47.934;33.430;2023-10-08T07:18:47;6.50;6.50;4.25
30713;PMS7003;17465;47.934;33.430;2023-10-08T07:21:17;4.00;2.50;1.25
30713;PMS7003;17465;47.934;33.430;2023-10-08T07:23:48;6.25;3.75;1.00
30713;PMS7003;17465;47.934;33.430;2023-10-08T07:26:28;5.25;4.25;2.50
30713;PMS7003;17465;47.934;33.430;2023-10-08T07:28:59;3.25;3.25;2.00
30713;PMS7003;17465;47.934;33.430;2023-10-08T07:31:29;2.00;2.00;1.00
30713;PMS7003;17465;47.934;33.430;2023-10-08T07:33:59;3.25;3.25;1.50
30713;PMS7003;17465;47.934;33.430;2023-10-08T07:36:30;3.00;2.00;1.50
30713;PMS7003;17465;47.934;33.430;2023-10-08T07:39:00;4.50;3.00;1.75
30713;PMS7003;17465;47.934;33.430;2023-10-08T07:41:30;2.00;2.00;1.00
30713;PMS7003;17465;47.934;33.430;2023-10-08T07:44:01;5.00;4.00;2.00
30713;PMS7003;17465;47.934;33.430;2023-10-08T07:46:31;3.00;3.00;2.00
30713;PMS7003;17465;47.934;33.430;2023-10-08T07:49:01;7.00;6.00;4.00
30713;PMS7003;17465;47.934;33.430;2023-10-08T07:51:31;2.75;2.75;1.25
30713;PMS7003;17465;47.934;33.430;2023-10-08T07:54:02;6.25;5.50;3.50
30713;PMS7003;17465;47.934;33.430;2023-10-08T07:56:32;4.00;4.00;2.00
30713;PMS7003;17465;47.934;33.430;2023-10-08T07:59:07;6.00;6.00;4.00
30713;PMS7003;17465;47.934;33.430;2023-10-08T08:01:37;6.00;6.00;3.00
30713;PMS7003;17465;47.934;33.430;2023-10-08T08:04:09;5.50;5.50;3.00
30713;PMS7003;17465;47.934;33.430;2023-10-08T08:06:41;3.00;3.00;2.00
30713;PMS7003;17465;47.934;33.430;2023-10-08T08:09:11;2.00;1.00;0.00
30713;PMS7003;17465;47.934;33.430;2023-10-08T08:11:43;5.00;2.25;1.00
30713;PMS7003;17465;47.934;33.430;2023-10-08T08:14:20;8.50;8.00;2.00
30713;PMS7003;17465;47.934;33.430;2023-10-08T08:16:46;3.00;3.00;1.00
30713;PMS7003;17465;47.934;33.430;2023-10-08T08:19:16;4.75;4.00;2.00
30713;PMS7003;17465;47.934;33.430;2023-10-08T08:21:46;4.75;4.50;2.25
30713;PMS7003;17465;47.934;33.430;2023-10-08T08:24:24;6.25;5.50;2.25
30713;PMS7003;17465;47.934;33.430;2023-10-08T08:26:50;7.75;7.00;2.00
30713;PMS7003;17465;47.934;33.430;2023-10-08T08:29:20;4.00;3.00;1.00
30713;PMS7003;17465;47.934;33.430;2023-10-08T08:31:50;5.50;3.50;2.00
30713;PMS7003;17465;47.934;33.430;2023-10-08T08:34:23;6.25;4.25;2.50
30713;PMS7003;17465;47.934;33.430;2023-10-08T08:36:53;4.50;4.00;2.00
30713;PMS7003;17465;47.934;33.430;2023-10-08T08:39:24;3.50;3.50;2.00
30713;PMS7003;17465;47.934;33.430;2023-10-08T08:41:59;5.75;4.75;1.75
30713;PMS7003;17465;47.934;33.430;2023-10-08T08:44:33;5.25;5.25;2.00
30713;PMS7003;17465;47.934;33.430;2023-10-08T08:47:05;3.75;3.75;1.50
30713;PMS7003;17465;47.934;33.430;2023-10-08T08:49:40;5.00;5.00;2.00
30713;PMS7003;17465;47.934;33.430;2023-10-08T08:52:18;4.50;3.25;1.00
30713;PMS7003;17465;47.934;33.430;2023-10-08T08:54:50;3.00;3.00;1.00
30713;PMS7003;17465;47.934;33.430;2023-10-08T08:57:36;4.50;4.50;2.00
30713;PMS7003;17465;47.934;33.430;2023-10-08T09:00:20;5.50;3.50;2.25
30713;PMS7003;17465;47.934;33.430;2023-10-08T09:02:52;3.25;3.25;2.00
30713;PMS7003;17465;47.934;33.430;2023-10-08T09:05:30;4.00;4.00;1.00
30713;PMS7003;17465;47.934;33.430;2023-10-08T09:08:05;5.00;5.00;3.00
30713;PMS7003;17465;47.934;33.430;2023-10-08T09:10:40;6.00;5.75;3.00
30713;PMS7003;17465;47.934;33.430;2023-10-08T09:13:13;5.75;4.50;2.00
30713;PMS7003;17465;47.934;33.430;2023-10-08T09:15:45;5.50;4.25;2.00
30713;PMS7003;17465;47.934;33.430;2023-10-08T09:18:25;4.00;4.00;1.75
30713;PMS7003;17465;47.934;33.430;2023-10-08T09:23:56;2.50;2.25;2.00
30713;PMS7003;17465;47.934;33.430;2023-10-08T09:26:23;2.00;2.00;1.00
30713;PMS7003;17465;47.934;33.430;2023-10-08T09:28:54;2.00;2.00;1.00
30713;PMS7003;17465;47.934;33.430;2023-10-08T09:31:32;1.00;0.00;0.00
30713;PMS7003;17465;47.934;33.430;2023-10-08T09:33:58;1.25;1.25;1.00
30713;PMS7003;17465;47.934;33.430;2023-10-08T09:36:31;2.00;2.00;1.00
30713;PMS7003;17465;47.934;33.430;2023-10-08T09:39:04;1.25;1.00;0.50
30713;PMS7003;17465;47.934;33.430;2023-10-08T09:41:35;0.25;0.25;0.00
30713;PMS7003;17465;47.934;33.430;2023-10-08T09:44:11;1.00;1.00;0.00
30713;PMS7003;17465;47.934;33.430;2023-10-08T09:46:42;2.00;2.00;0.00
30713;PMS7003;17465;47.934;33.430;2023-10-08T09:49:16;2.00;2.00;0.00
30713;PMS7003;17465;47.934;33.430;2023-10-08T09:51:59;2.75;2.75;1.00
30713;PMS7003;17465;47.934;33.430;2023-10-08T09:54:31;2.75;2.25;1.25
30713;PMS7003;17465;47.934;33.430;2023-10-08T09:57:17;3.00;1.25;1.00
30713;PMS7003;17465;47.934;33.430;2023-10-08T09:59:48;2.75;2.00;1.00
30713;PMS7003;17465;47.934;33.430;2023-10-08T10:02:19;2.50;2.50;1.00
30713;PMS7003;17465;47.934;33.430;2023-10-08T10:05:11;3.50;2.75;1.00
30713;PMS7003;17465;47.934;33.430;2023-10-08T10:07:49;2.00;2.00;0.50
30713;PMS7003;17465;47.934;33.430;2023-10-08T10:10:26;2.00;2.00;0.00
30713;PMS7003;17465;47.934;33.430;2023-10-08T10:12:58;2.25;2.25;1.00
30713;PMS7003;17465;47.934;33.430;2023-10-08T10:15:34;1.50;1.00;1.00
30713;PMS7003;17465;47.934;33.430;2023-10-08T10:18:26;4.00;4.00;1.00
30713;PMS7003;17465;47.934;33.430;2023-10-08T10:20:46;1.25;1.00;1.00
30713;PMS7003;17465;47.934;33.430;2023-10-08T10:23:40;2.25;2.25;1.00
30713;PMS7003;17465;47.934;33.430;2023-10-08T10:26:35;2.00;2.00;1.00
30713;PMS7003;17465;47.934;33.430;2023-10-08T10:31:52;4.25;4.00;1.00
30713;PMS7003;17465;47.934;33.430;2023-10-08T10:34:24;3.00;3.00;2.00
30713;PMS7003;17465;47.934;33.430;2023-10-08T10:36:57;2.50;2.50;1.50
30713;PMS7003;17465;47.934;33.430;2023-10-08T10:39:28;3.00;3.00;2.00
30713;PMS7003;17465;47.934;33.430;2023-10-08T10:41:59;2.50;2.50;1.00
30713;PMS7003;17465;47.934;33.430;2023-10-08T10:44:32;3.00;3.00;2.00
30713;PMS7003;17465;47.934;33.430;2023-10-08T10:47:03;3.00;3.00;1.50
30713;PMS7003;17465;47.934;33.430;2023-10-08T10:49:34;4.00;4.00;1.50
30713;PMS7003;17465;47.934;33.430;2023-10-08T10:52:05;2.75;2.75;1.75
30713;PMS7003;17465;47.934;33.430;2023-10-08T10:54:35;2.00;2.00;1.00
30713;PMS7003;17465;47.934;33.430;2023-10-08T10:57:06;2.00;2.00;0.25
30713;PMS7003;17465;47.934;33.430;2023-10-08T10:59:37;3.00;3.00;1.25
30713;PMS7003;17465;47.934;33.430;2023-10-08T11:02:14;2.50;2.50;1.00
30713;PMS7003;17465;47.934;33.430;2023-10-08T11:04:40;3.50;2.00;0.75
30713;PMS7003;17465;47.934;33.430;2023-10-08T11:07:11;1.75;1.75;1.00
30713;PMS7003;17465;47.934;33.430;2023-10-08T11:09:44;2.00;2.00;0.75
30713;PMS7003;17465;47.934;33.430;2023-10-08T11:12:17;2.00;1.00;0.00
30713;PMS7003;17465;47.934;33.430;2023-10-08T11:14:51;3.00;3.00;0.00
30713;PMS7003;17465;47.934;33.430;2023-10-08T11:17:24;3.50;2.00;1.00
30713;PMS7003;17465;47.934;33.430;2023-10-08T11:19:55;2.50;2.50;1.00
30713;PMS7003;17465;47.934;33.430;2023-10-08T11:22:42;2.75;2.75;1.00
30713;PMS7003;17465;47.934;33.430;2023-10-08T11:25:23;2.50;2.50;0.50
30713;PMS7003;17465;47.934;33.430;2023-10-08T11:27:54;2.00;2.00;1.00
30713;PMS7003;17465;47.934;33.430;2023-10-08T11:30:30;4.00;4.00;2.00
30713;PMS7003;17465;47.934;33.430;2023-10-08T11:33:03;3.50;3.50;2.75
30713;PMS7003;17465;47.934;33.430;2023-10-08T11:35:34;2.25;2.25;1.00
30713;PMS7003;17465;47.934;33.430;2023-10-08T11:38:04;1.75;1.75;1.00
30713;PMS7003;17465;47.934;33.430;2023-10-08T11:40:37;2.50;2.50;1.00
30713;PMS7003;17465;47.934;33.430;2023-10-08T11:43:11;1.50;1.50;0.50
30713;PMS7003;17465;47.934;33.430;2023-10-08T11:49:06;3.75;3.00;1.00
30713;PMS7003;17465;47.934;33.430;2023-10-08T11:51:47;2.00;2.00;0.50
30713;PMS7003;17465;47.934;33.430;2023-10-08T11:54:17;2.00;2.00;0.00
30713;PMS7003;17465;47.934;33.430;2023-10-08T11:56:47;1.00;1.00;0.75
30713;PMS7003;17465;47.934;33.430;2023-10-08T11:59:17;0.00;0.00;0.00
30713;PMS7003;17465;47.934;33.430;2023-10-08T12:01:48;1.75;1.75;0.50
30713;PMS7003;17465;47.934;33.430;2023-10-08T12:04:19;1.25;1.25;0.00
30713;PMS7003;17465;47.934;33.430;2023-10-08T12:06:50;1.75;1.50;1.00
30713;PMS7003;17465;47.934;33.430;2023-10-08T12:09:22;1.00;1.00;0.25
30713;PMS7003;17465;47.934;33.430;2023-10-08T12:11:54;2.00;2.00;1.00
30713;PMS7003;17465;47.934;33.430;2023-10-08T12:14:26;3.25;1.50;0.75
30713;PMS7003;17465;47.934;33.430;2023-10-08T12:17:00;1.00;1.00;0.75
30713;PMS7003;17465;47.934;33.430;2023-10-08T12:19:29;2.00;2.00;1.00
30713;PMS7003;17465;47.934;33.430;2023-10-08T12:22:00;3.00;1.25;1.00
30713;PMS7003;17465;47.934;33.430;2023-10-08T12:24:31;2.50;2.50;1.00
30713;PMS7003;17465;47.934;33.430;2023-10-08T12:27:01;1.00;1.00;0.00
30713;PMS7003;17465;47.934;33.430;2023-10-08T12:29:31;2.00;1.00;0.25
30713;PMS7003;17465;47.934;33.430;2023-10-08T12:32:04;1.00;1.00;0.25
30713;PMS7003;17465;47.934;33.430;2023-10-08T12:34:38;3.25;3.25;1.25
30713;PMS7003;17465;47.934;33.430;2023-10-08T12:37:11;5.00;2.00;1.00
30713;PMS7003;17465;47.934;33.430;2023-10-08T12:39:41;0.00;0.00;0.00
30713;PMS7003;17465;47.934;33.430;2023-10-08T12:42:11;14.75;11.50;5.50
30713;PMS7003;17465;47.934;33.430;2023-10-08T12:44:41;2.00;2.00;1.00
30713;PMS7003;17465;47.934;33.430;2023-10-08T12:47:19;4.75;4.00;1.00
30713;PMS7003;17465;47.934;33.430;2023-10-08T12:49:50;1.75;1.75;0.00
30713;PMS7003;17465;47.934;33.430;2023-10-08T12:52:20;2.00;2.00;1.00
30713;PMS7003;17465;47.934;33.430;2023-10-08T12:54:52;1.75;1.75;0.75
30713;PMS7003;17465;47.934;33.430;2023-10-08T12:57:22;3.00;3.00;1.00
30713;PMS7003;17465;47.934;33.430;2023-10-08T12:59:52;11.25;11.25;6.00
30713;PMS7003;17465;47.934;33.430;2023-10-08T13:02:25;1.00;1.00;0.00
30713;PMS7003;17465;47.934;33.430;2023-10-08T13:05:01;1.00;1.00;0.25
30713;PMS7003;17465;47.934;33.430;2023-10-08T13:07:33;1.25;1.25;1.00
30713;PMS7003;17465;47.934;33.430;2023-10-08T13:10:05;3.00;3.00;1.75
30713;PMS7003;17465;47.934;33.430;2023-10-08T13:12:46;2.00;2.00;0.00
30713;PMS7003;17465;47.934;33.430;2023-10-08T13:15:15;3.00;2.50;1.00
30713;PMS7003;17465;47.934;33.430;2023-10-08T13:17:45;2.00;1.50;0.00
30713;PMS7003;17465;47.934;33.430;2023-10-08T13:20:18;3.50;1.75;0.50
30713;PMS7003;17465;47.934;33.430;2023-10-08T13:22:51;2.00;2.00;1.00
30713;PMS7003;17465;47.934;33.430;2023-10-08T13:25:23;3.00;2.00;1.00
30713;PMS7003;17465;47.934;33.430;2023-10-08T13:27:53;1.00;1.00;0.00
30713;PMS7003;17465;47.934;33.430;2023-10-08T13:30:23;2.00;2.00;1.00
30713;PMS7003;17465;47.934;33.430;2023-10-08T13:32:54;2.00;2.00;1.00
30713;PMS7003;17465;47.934;33.430;2023-10-08T13:35:24;2.50;2.50;1.00
30713;PMS7003;17465;47.934;33.430;2023-10-08T13:37:54;3.00;3.00;1.00
30713;PMS7003;17465;47.934;33.430;2023-10-08T13:40:24;2.00;2.00;0.75
30713;PMS7003;17465;47.934;33.430;2023-10-08T13:42:59;3.00;2.00;1.00
30713;PMS7003;17465;47.934;33.430;2023-10-08T13:45:30;4.50;3.00;2.00
30713;PMS7003;17465;47.934;33.430;2023-10-08T13:48:00;2.00;2.00;1.00
30713;PMS7003;17465;47.934;33.430;2023-10-08T13:50:31;2.50;2.50;1.75
30713;PMS7003;17465;47.934;33.430;2023-10-08T13:53:05;3.50;2.00;1.00
30713;PMS7003;17465;47.934;33.430;2023-10-08T13:55:34;1.50;1.50;1.50
30713;PMS7003;17465;47.934;33.430;2023-10-08T13:58:04;1.25;1.25;1.00
30713;PMS7003;17465;47.934;33.430;2023-10-08T14:00:36;1.00;1.00;0.00
30713;PMS7003;17465;47.934;33.430;2023-10-08T14:03:06;2.00;2.00;1.00
30713;PMS7003;17465;47.934;33.430;2023-10-08T14:05:39;3.75;3.00;2.00
30713;PMS7003;17465;47.934;33.430;2023-10-08T14:08:12;2.00;2.00;1.00
30713;PMS7003;17465;47.934;33.430;2023-10-08T14:10:43;3.00;3.00;1.00
30713;PMS7003;17465;47.934;33.430;2023-10-08T14:13:15;2.50;1.00;0.25
30713;PMS7003;17465;47.934;33.430;2023-10-08T14:15:46;1.00;1.00;0.00
30713;PMS7003;17465;47.934;33.430;2023-10-08T14:18:16;2.50;2.00;1.00
30713;PMS7003;17465;47.934;33.430;2023-10-08T14:20:47;3.25;2.00;1.00
30713;PMS7003;17465;47.934;33.430;2023-10-08T14:23:17;3.25;3.25;1.75
30713;PMS7003;17465;47.934;33.430;2023-10-08T14:25:47;1.25;1.25;0.50
30713;PMS7003;17465;47.934;33.430;2023-10-08T14:28:19;5.00;5.00;3.50
30713;PMS7003;17465;47.934;33.430;2023-10-08T14:30:52;2.75;2.50;1.00
30713;PMS7003;17465;47.934;33.430;2023-10-08T14:33:23;3.00;3.00;1.25
30713;PMS7003;17465;47.934;33.430;2023-10-08T14:35:54;3.25;3.25;1.25